createdAt,value
2023-12-14T16:55:28.515Z,21.79
2023-12-14T16:56:29.497Z,21.72
2023-12-14T16:57:29.434Z,21.75
2023-12-14T16:58:29.390Z,21.69
2023-12-14T16:59:29.388Z,21.72
2023-12-14T17:00:29.261Z,21.70
2023-12-14T17:01:29.238Z,21.66
2023-12-14T17:02:29.223Z,21.75
2023-12-14T17:03:29.153Z,21.77
2023-12-14T17:04:29.090Z,21.77
2023-12-14T17:05:29.114Z,21.80
2023-12-14T17:06:28.985Z,21.77
2023-12-14T17:07:28.921Z,21.77
2023-12-14T17:08:28.869Z,21.83
2023-12-14T17:09:28.879Z,21.88
2023-12-14T17:10:30.741Z,21.95
2023-12-14T17:11:28.696Z,21.88
2023-12-14T17:12:28.655Z,21.95
2023-12-14T17:13:28.588Z,21.95
2023-12-14T17:14:28.669Z,21.99
2023-12-14T17:15:28.466Z,22.06
2023-12-14T17:16:28.420Z,22.10
2023-12-14T17:17:28.358Z,22.13
2023-12-14T17:18:28.330Z,22.08
2023-12-14T17:19:28.236Z,22.17
2023-12-14T17:20:28.263Z,22.17
2023-12-14T17:21:28.151Z,22.15
2023-12-14T17:22:28.104Z,22.15
2023-12-14T17:23:28.035Z,22.11
2023-12-14T17:24:27.971Z,22.06
2023-12-14T17:25:27.913Z,22.08
2023-12-14T17:26:27.954Z,22.07
2023-12-14T17:27:27.806Z,22.00
2023-12-14T17:28:27.828Z,22.06
2023-12-14T17:29:27.709Z,22.07
2023-12-14T17:30:27.709Z,22.07
2023-12-14T17:31:27.697Z,22.04
2023-12-14T17:32:27.605Z,22.02
2023-12-14T17:33:27.570Z,22.06
2023-12-14T17:34:27.482Z,22.04
2023-12-14T17:35:27.428Z,22.06
2023-12-14T17:36:27.303Z,22.00
2023-12-14T17:37:27.275Z,22.07
2023-12-14T17:38:27.257Z,22.06
2023-12-14T17:39:27.202Z,22.04
2023-12-14T17:40:01.193Z,22.06
2023-12-14T17:41:05.420Z,22.07
2023-12-14T17:42:05.732Z,22.04
2023-12-14T17:43:05.690Z,22.04
2023-12-14T18:45:43.699Z,22.07
